Time;durP1;ratioP1;P1;durP2;ratioP2;P2;SDS_P1;SDS_P2;PMS_P1;PMS_P2;Temp;Humidity;BMP_temperature;BMP_pressure;BME280_temperature;BME280_humidity;BME280_pressure;Samples;Min_cycle;Max_cycle;Signal;HPM_P1;HPM_P2
2022/04/08 00:01:25;;;;;;;;;;;;;;;;;;5074561;28;19908;-46
2022/04/08 00:03:52;;;;;;;;;;;;;;;;;;5074064;28;19962;-46
2022/04/08 00:06:17;;;;;;;;;;;;;;;;;;5074555;28;19908;-46
2022/04/08 00:08:44;;;;;;;;;;;;;;;;;;5056546;28;20004;-46
2022/04/08 00:11:10;;;;;;;;;;;;;;;;;;5074520;28;20249;-45
2022/04/08 00:13:36;;;;;;;;;;;;;;;;;;5074392;28;20569;-45
2022/04/08 00:16:02;;;;;;;;;;;;;;;;;;5074284;28;19908;-45
2022/04/08 00:18:29;;;;;;;;;;;;;;;;;;5074259;28;19916;-46
2022/04/08 00:20:55;;;;;;;;;;;;;;;;;;5074284;28;19999;-45
2022/04/08 00:23:21;;;;;;;;;;;;;;;;;;5074239;28;19960;-45
2022/04/08 00:25:47;;;;;;;;;;;;;;;;;;5074161;28;20374;-46
2022/04/08 00:28:13;;;;;;;;;;;;;;;;;;5074054;28;19909;-45
2022/04/08 00:30:39;;;;;;;;;;;;;;;;;;5074014;28;20382;-46
2022/04/08 00:33:05;;;;;;;;;;;;;;;;;;5073946;28;20011;-45
2022/04/08 00:35:30;;;;;;;;;;;;;;;;;;5073933;28;19915;-45
2022/04/08 00:37:57;;;;;;;;;;;;;;;;;;5073578;28;19958;-46
2022/04/08 00:40:23;;;;;;;;;;;;;;;;;;5073893;28;19909;-46
2022/04/08 00:42:49;;;;;;;;;;;;;;;;;;5073711;28;19915;-46
2022/04/08 00:45:14;;;;;;;;;;;;;;;;;;5073736;28;19913;-46
2022/04/08 00:47:41;;;;;;;;;;;;;;;;;;5073663;28;19912;-46
2022/04/08 00:50:07;;;;;;;;;;;;;;;;;;5073838;28;19908;-44
2022/04/08 00:52:33;;;;;;;;;;;;;;;;;;5073569;28;19908;-45
2022/04/08 00:54:58;;;;;;;;;;;;;;;;;;5073503;28;19999;-46
2022/04/08 00:57:24;;;;;;;;;;;;;;;;;;5073521;28;19908;-45
2022/04/08 00:59:50;;;;;;;;;;;;;;;;;;5073474;28;20352;-45
2022/04/08 01:02:16;;;;;;;;;;;;;;;;;;5073330;28;19916;-45
2022/04/08 01:04:42;;;;;;;;;;;;;;;;;;5073384;28;19948;-45
2022/04/08 01:07:08;;;;;;;;;;;;;;;;;;5073275;28;19959;-45
2022/04/08 01:09:34;;;;;;;;;;;;;;;;;;5073308;28;19915;-46
2022/04/08 01:12:00;;;;;;;;;;;;;;;;;;5073297;28;20310;-46
2022/04/08 01:14:26;;;;;;;;;;;;;;;;;;5073270;28;19909;-46
2022/04/08 01:16:52;;;;;;;;;;;;;;;;;;5072416;28;19909;-46
2022/04/08 01:19:18;;;;;;;;;;;;;;;;;;5073055;28;19916;-45
2022/04/08 01:21:44;;;;;;;;;;;;;;;;;;5073132;28;20298;-45
2022/04/08 01:24:12;;;;;;;;;;;;;;;;;;5073325;28;19919;-45
2022/04/08 01:26:38;;;;;;;;;;;;;;;;;;5073120;28;19908;-46
2022/04/08 01:29:04;;;;;;;;;;;;;;;;;;5073045;28;20373;-45
2022/04/08 01:31:30;;;;;;;;;;;;;;;;;;5072912;28;19912;-44
2022/04/08 01:33:56;;;;;;;;;;;;;;;;;;5072970;28;19947;-45
2022/04/08 01:36:22;;;;;;;;;;;;;;;;;;5073021;28;19915;-46
2022/04/08 01:38:48;;;;;;;;;;;;;;;;;;5072672;28;20286;-45
2022/04/08 01:41:16;;;;;;;;;;;;;;;;;;5072828;28;19954;-45
2022/04/08 01:43:42;;;;;;;;;;;;;;;;;;5073181;28;19931;-46
2022/04/08 01:46:08;;;;;;;;;;;;;;;;;;5072804;28;20363;-47
2022/04/08 01:48:34;;;;;;;;;;;;;;;;;;5072796;28;20062;-46
2022/04/08 01:50:59;;;;;;;;;;;;;;;;;;5072764;28;19917;-46
2022/04/08 01:53:25;;;;;;;;;;;;;;;;;;5072772;28;20021;-46
2022/04/08 01:55:51;;;;;;;;;;;;;;;;;;5072738;28;19963;-46
2022/04/08 01:58:17;;;;;;;;;;;;;;;;;;5072840;28;19962;-46
2022/04/08 02:00:43;;;;;;;;;;;;;;;;;;5072652;28;19992;-46
2022/04/08 02:03:09;;;;;;;;;;;;;;;;;;5072800;28;19970;-46
2022/04/08 02:05:35;;;;;;;;;;;;;;;;;;5072546;28;19934;-47
2022/04/08 02:08:01;;;;;;;;;;;;;;;;;;5072579;28;19908;-46
2022/04/08 02:10:27;;;;;;;;;;;;;;;;;;5072526;28;19939;-46
2022/04/08 02:12:53;;;;;;;;;;;;;;;;;;5072566;28;19970;-47
2022/04/08 02:15:20;;;;;;;;;;;;;;;;;;5072495;28;19952;-46
2022/04/08 02:17:46;;;;;;;;;;;;;;;;;;5072477;28;19910;-46
2022/04/08 02:20:12;;;;;;;;;;;;;;;;;;5072423;28;19986;-45
2022/04/08 02:22:37;;;;;;;;;;;;;;;;;;5072423;28;19908;-47
2022/04/08 02:25:05;;;;;;;;;;;;;;;;;;5072466;28;19908;-45
2022/04/08 02:27:32;;;;;;;;;;;;;;;;;;5073967;28;19915;-46
2022/04/08 02:29:58;;;;;;;;;;;;;;;;;;5076681;28;19915;-46
2022/04/08 02:32:24;;;;;;;;;;;;;;;;;;5076334;28;19908;-46
2022/04/08 02:34:51;;;;;;;;;;;;;;;;;;5076280;28;19912;-45
2022/04/08 02:37:17;;;;;;;;;;;;;;;;;;5076055;28;19924;-46
2022/04/08 02:39:43;;;;;;;;;;;;;;;;;;5076052;28;19916;-46
2022/04/08 02:42:09;;;;;;;;;;;;;;;;;;5076401;28;19908;-45
2022/04/08 02:44:35;;;;;;;;;;;;;;;;;;5076017;28;19915;-46
2022/04/08 02:47:01;;;;;;;;;;;;;;;;;;5075945;28;19908;-46
2022/04/08 02:49:27;;;;;;;;;;;;;;;;;;5075949;28;19908;-46
2022/04/08 02:51:53;;;;;;;;;;;;;;;;;;5075931;28;19915;-46
2022/04/08 02:54:18;;;;;;;;;;;;;;;;;;5075853;28;20003;-46
2022/04/08 02:56:44;;;;;;;;;;;;;;;;;;5057871;28;19909;-47
2022/04/08 02:59:10;;;;;;;;;;;;;;;;;;5075670;28;19921;-47
2022/04/08 03:01:36;;;;;;;;;;;;;;;;;;5075619;28;20079;-45
2022/04/08 03:04:05;;;;;;;;;;;;;;;;;;5075752;28;19908;-47
2022/04/08 03:06:31;;;;;;;;;;;;;;;;;;5076030;28;19947;-46
2022/04/08 03:08:57;;;;;;;;;;;;;;;;;;5075725;28;19994;-46
2022/04/08 03:11:23;;;;;;;;;;;;;;;;;;5075589;28;19913;-46
2022/04/08 03:13:49;;;;;;;;;;;;;;;;;;5075525;28;19935;-45
2022/04/08 03:16:15;;;;;;;;;;;;;;;;;;5075559;28;19988;-46
2022/04/08 03:18:41;;;;;;;;;;;;;;;;;;5075364;28;19923;-47
2022/04/08 03:21:06;;;;;;;;;;;;;;;;;;5075386;28;19909;-45
2022/04/08 03:23:32;;;;;;;;;;;;;;;;;;5075668;28;20420;-46
2022/04/08 03:25:58;;;;;;;;;;;;;;;;;;5075352;28;20003;-46
2022/04/08 03:28:24;;;;;;;;;;;;;;;;;;5075324;28;20056;-45
2022/04/08 03:30:50;;;;;;;;;;;;;;;;;;5075238;28;20288;-47
2022/04/08 03:33:16;;;;;;;;;;;;;;;;;;5075261;28;20011;-47
2022/04/08 03:35:42;;;;;;;;;;;;;;;;;;5075111;28;19916;-45
2022/04/08 03:38:08;;;;;;;;;;;;;;;;;;5074517;28;20407;-45
2022/04/08 03:40:33;;;;;;;;;;;;;;;;;;5074465;28;19920;-45
2022/04/08 03:42:59;;;;;;;;;;;;;;;;;;5075073;28;19912;-46
2022/04/08 03:45:25;;;;;;;;;;;;;;;;;;5074999;28;19909;-46
2022/04/08 03:47:51;;;;;;;;;;;;;;;;;;5075302;28;19999;-45
2022/04/08 03:50:17;;;;;;;;;;;;;;;;;;5074853;28;20370;-46
2022/04/08 03:52:43;;;;;;;;;;;;;;;;;;5074835;28;19909;-46
2022/04/08 03:55:09;;;;;;;;;;;;;;;;;;5074797;28;19915;-46
2022/04/08 03:57:35;;;;;;;;;;;;;;;;;;5075110;28;19908;-47
2022/04/08 04:00:01;;;;;;;;;;;;;;;;;;5074707;28;20019;-47
2022/04/08 04:02:27;;;;;;;;;;;;;;;;;;5074648;28;19956;-47
2022/04/08 04:04:59;;;;;;;;;;;;;;;;;;5074589;28;19943;-46
2022/04/08 04:07:25;;;;;;;;;;;;;;;;;;5074557;28;20389;-46
2022/04/08 04:09:51;;;;;;;;;;;;;;;;;;5074472;28;19908;-46
2022/04/08 04:12:16;;;;;;;;;;;;;;;;;;5074450;28;20362;-45
2022/04/08 04:14:43;;;;;;;;;;;;;;;;;;5074390;28;20016;-46
2022/04/08 04:17:09;;;;;;;;;;;;;;;;;;5074604;28;19909;-45
2022/04/08 04:19:34;;;;;;;;;;;;;;;;;;5074183;28;20290;-48
2022/04/08 04:22:00;;;;;;;;;;;;;;;;;;5074382;28;19909;-48
2022/04/08 04:24:26;;;;;;;;;;;;;;;;;;5074175;28;19940;-45
2022/04/08 04:26:52;;;;;;;;;;;;;;;;;;5074206;28;20173;-46
2022/04/08 04:29:18;;;;;;;;;;;;;;;;;;5074134;28;19908;-46
2022/04/08 04:31:44;;;;;;;;;;;;;;;;;;5074027;28;19909;-46
2022/04/08 04:34:10;;;;;;;;;;;;;;;;;;5074271;28;20330;-45
2022/04/08 04:36:36;;;;;;;;;;;;;;;;;;5073863;28;19908;-45
2022/04/08 04:39:01;;;;;;;;;;;;;;;;;;5073961;28;19939;-45
2022/04/08 04:41:27;;;;;;;;;;;;;;;;;;5074210;28;20355;-46
2022/04/08 04:43:53;;;;;;;;;;;;;;;;;;5073778;28;19954;-46
2022/04/08 04:46:19;;;;;;;;;;;;;;;;;;5073778;28;19954;-45
2022/04/08 04:48:45;;;;;;;;;;;;;;;;;;5073554;28;20367;-46
2022/04/08 04:51:13;;;;;;;;;;;;;;;;;;5073333;28;19915;-47
2022/04/08 04:53:39;;;;;;;;;;;;;;;;;;5073586;28;20359;-46
2022/04/08 04:56:05;;;;;;;;;;;;;;;;;;5073432;28;20049;-45
2022/04/08 04:58:31;;;;;;;;;;;;;;;;;;5073413;28;20275;-46
2022/04/08 05:00:57;;;;;;;;;;;;;;;;;;5073377;28;19909;-46
2022/04/08 05:03:23;;;;;;;;;;;;;;;;;;5073320;28;19915;-46
2022/04/08 05:05:48;;;;;;;;;;;;;;;;;;5073376;28;19912;-45
2022/04/08 05:08:14;;;;;;;;;;;;;;;;;;5073342;28;19913;-46
2022/04/08 05:10:40;;;;;;;;;;;;;;;;;;5073404;28;19912;-46
2022/04/08 05:13:06;;;;;;;;;;;;;;;;;;5073315;28;19930;-45
2022/04/08 05:15:37;;;;;;;;;;;;;;;;;;5073546;28;19908;-46
2022/04/08 05:18:04;;;;;;;;;;;;;;;;;;5073577;28;19909;-45
2022/04/08 05:20:30;;;;;;;;;;;;;;;;;;5073356;28;19920;-46
2022/04/08 05:22:56;;;;;;;;;;;;;;;;;;5073123;28;19909;-46
2022/04/08 05:25:22;;;;;;;;;;;;;;;;;;5072969;28;19915;-46
2022/04/08 05:27:48;;;;;;;;;;;;;;;;;;5073083;28;20295;-46
2022/04/08 05:30:15;;;;;;;;;;;;;;;;;;5072942;28;19909;-46
2022/04/08 05:32:41;;;;;;;;;;;;;;;;;;5072896;28;19908;-45
2022/04/08 05:35:07;;;;;;;;;;;;;;;;;;5073006;28;19915;-45
2022/04/08 05:37:33;;;;;;;;;;;;;;;;;;5072693;28;19920;-46
2022/04/08 05:39:59;;;;;;;;;;;;;;;;;;5072827;28;19955;-46
2022/04/08 05:42:25;;;;;;;;;;;;;;;;;;5072756;28;19909;-47
2022/04/08 05:44:50;;;;;;;;;;;;;;;;;;5072861;28;19912;-45
2022/04/08 05:47:16;;;;;;;;;;;;;;;;;;5072784;28;20446;-45
2022/04/08 05:49:42;;;;;;;;;;;;;;;;;;5073068;28;20037;-47
2022/04/08 05:52:08;;;;;;;;;;;;;;;;;;5072802;28;19919;-45
2022/04/08 05:54:34;;;;;;;;;;;;;;;;;;5072743;28;19951;-47
2022/04/08 05:57:01;;;;;;;;;;;;;;;;;;5072653;28;19958;-46
2022/04/08 05:59:26;;;;;;;;;;;;;;;;;;5072742;28;19923;-46
2022/04/08 06:01:52;;;;;;;;;;;;;;;;;;5072092;28;20003;-47
2022/04/08 06:04:18;;;;;;;;;;;;;;;;;;5072885;28;19908;-48
2022/04/08 06:06:44;;;;;;;;;;;;;;;;;;5072654;28;19991;-48
2022/04/08 06:09:10;;;;;;;;;;;;;;;;;;5072825;28;19962;-46
2022/04/08 06:11:36;;;;;;;;;;;;;;;;;;5072611;28;20362;-47
2022/04/08 06:14:02;;;;;;;;;;;;;;;;;;5072607;28;19915;-46
2022/04/08 06:16:28;;;;;;;;;;;;;;;;;;5072434;28;19908;-46
2022/04/08 06:18:55;;;;;;;;;;;;;;;;;;5054445;28;19927;-45
2022/04/08 06:21:21;;;;;;;;;;;;;;;;;;5072353;28;19964;-46
2022/04/08 06:23:47;;;;;;;;;;;;;;;;;;5072404;28;19912;-46
2022/04/08 06:26:15;;;;;;;;;;;;;;;;;;5072241;28;20358;-46
2022/04/08 06:28:40;;;;;;;;;;;;;;;;;;5072607;28;19908;-46
2022/04/08 06:31:06;;;;;;;;;;;;;;;;;;5072439;28;20286;-47
2022/04/08 06:33:32;;;;;;;;;;;;;;;;;;5072322;28;19912;-46
2022/04/08 06:35:58;;;;;;;;;;;;;;;;;;5072318;28;19999;-46
2022/04/08 06:38:24;;;;;;;;;;;;;;;;;;5072060;28;20402;-46
2022/04/08 06:40:50;;;;;;;;;;;;;;;;;;5072268;28;19952;-46
2022/04/08 06:43:16;;;;;;;;;;;;;;;;;;5072212;28;19909;-47
2022/04/08 06:45:42;;;;;;;;;;;;;;;;;;5072444;28;19916;-46
2022/04/08 06:48:07;;;;;;;;;;;;;;;;;;5072463;28;19909;-46
2022/04/08 06:50:33;;;;;;;;;;;;;;;;;;5072010;28;19970;-47
2022/04/08 06:53:00;;;;;;;;;;;;;;;;;;5072316;28;20282;-47
2022/04/08 06:55:26;;;;;;;;;;;;;;;;;;5072328;28;19909;-47
2022/04/08 06:57:52;;;;;;;;;;;;;;;;;;5071974;28;19908;-46
2022/04/08 07:00:18;;;;;;;;;;;;;;;;;;5071780;28;19917;-46
2022/04/08 07:02:44;;;;;;;;;;;;;;;;;;5071776;28;19908;-47
2022/04/08 07:05:10;;;;;;;;;;;;;;;;;;5072109;28;19916;-46
2022/04/08 07:07:36;;;;;;;;;;;;;;;;;;5072026;28;20390;-47
2022/04/08 07:10:02;;;;;;;;;;;;;;;;;;5071980;28;19915;-47
2022/04/08 07:12:27;;;;;;;;;;;;;;;;;;5071992;28;19916;-48
2022/04/08 07:14:53;;;;;;;;;;;;;;;;;;5073874;28;19912;-47
2022/04/08 07:17:19;;;;;;;;;;;;;;;;;;5075838;28;19952;-46
2022/04/08 07:19:45;;;;;;;;;;;;;;;;;;5075320;28;20282;-45
2022/04/08 07:22:11;;;;;;;;;;;;;;;;;;5075381;28;19912;-46
2022/04/08 07:24:37;;;;;;;;;;;;;;;;;;5075371;28;19943;-47
2022/04/08 07:27:03;;;;;;;;;;;;;;;;;;5075306;28;20374;-49
2022/04/08 07:29:28;;;;;;;;;;;;;;;;;;5075235;28;20000;-47
2022/04/08 07:31:54;;;;;;;;;;;;;;;;;;5075219;28;19916;-49
2022/04/08 07:34:20;;;;;;;;;;;;;;;;;;5075143;28;19956;-48
2022/04/08 07:36:46;;;;;;;;;;;;;;;;;;5074929;28;19947;-50
2022/04/08 07:39:12;;;;;;;;;;;;;;;;;;5075278;28;19975;-48
2022/04/08 07:41:38;;;;;;;;;;;;;;;;;;5075034;28;19915;-48
2022/04/08 07:44:04;;;;;;;;;;;;;;;;;;5075007;28;19909;-48
2022/04/08 07:46:30;;;;;;;;;;;;;;;;;;5074926;28;20436;-48
2022/04/08 07:48:56;;;;;;;;;;;;;;;;;;5074840;28;19962;-48
2022/04/08 07:51:22;;;;;;;;;;;;;;;;;;5074829;28;19912;-49
2022/04/08 07:53:47;;;;;;;;;;;;;;;;;;5056799;28;20007;-47
2022/04/08 07:56:13;;;;;;;;;;;;;;;;;;5074753;28;19908;-48
2022/04/08 07:58:39;;;;;;;;;;;;;;;;;;5074664;28;20393;-48
2022/04/08 08:01:05;;;;;;;;;;;;;;;;;;5074697;28;19959;-47
2022/04/08 08:03:34;;;;;;;;;;;;;;;;;;5074578;28;19909;-49
2022/04/08 08:06:00;;;;;;;;;;;;;;;;;;5074500;28;20403;-48
2022/04/08 08:08:26;;;;;;;;;;;;;;;;;;5074540;28;19909;-48
2022/04/08 08:10:52;;;;;;;;;;;;;;;;;;5074664;28;19915;-47
2022/04/08 08:13:18;;;;;;;;;;;;;;;;;;5074363;28;19940;-48
2022/04/08 08:15:44;;;;;;;;;;;;;;;;;;5074315;28;19908;-48
2022/04/08 08:18:10;;;;;;;;;;;;;;;;;;5074282;28;19919;-48
2022/04/08 08:20:37;;;;;;;;;;;;;;;;;;5074170;28;20335;-48
2022/04/08 08:23:02;;;;;;;;;;;;;;;;;;5074323;28;19908;-48
2022/04/08 08:25:28;;;;;;;;;;;;;;;;;;5073771;28;20393;-48
2022/04/08 08:27:54;;;;;;;;;;;;;;;;;;5074125;28;19909;-48
2022/04/08 08:30:20;;;;;;;;;;;;;;;;;;5074089;28;20379;-48
2022/04/08 08:32:46;;;;;;;;;;;;;;;;;;5073974;28;19909;-48
2022/04/08 08:35:17;;;;;;;;;;;;;;;;;;5073963;28;20457;-49
2022/04/08 08:37:43;;;;;;;;;;;;;;;;;;5073954;28;19974;-48
2022/04/08 08:40:09;;;;;;;;;;;;;;;;;;5073845;28;20294;-47
2022/04/08 08:42:36;;;;;;;;;;;;;;;;;;5073767;28;19908;-48
2022/04/08 08:45:01;;;;;;;;;;;;;;;;;;5073755;28;20251;-47
2022/04/08 08:47:27;;;;;;;;;;;;;;;;;;5073896;28;19916;-48
2022/04/08 08:49:53;;;;;;;;;;;;;;;;;;5073425;28;19961;-47
2022/04/08 08:52:19;;;;;;;;;;;;;;;;;;5073284;28;19909;-49
2022/04/08 08:54:45;;;;;;;;;;;;;;;;;;5073376;28;19931;-48
2022/04/08 08:57:11;;;;;;;;;;;;;;;;;;5073325;28;19915;-48
2022/04/08 08:59:37;;;;;;;;;;;;;;;;;;5073319;28;19942;-48
2022/04/08 09:02:03;;;;;;;;;;;;;;;;;;5073572;28;19999;-47
2022/04/08 09:04:29;;;;;;;;;;;;;;;;;;5073343;28;19951;-48
2022/04/08 09:06:55;;;;;;;;;;;;;;;;;;5073587;28;19954;-49
2022/04/08 09:09:21;;;;;;;;;;;;;;;;;;5073511;28;19909;-48
2022/04/08 09:11:47;;;;;;;;;;;;;;;;;;5073459;28;19977;-48
2022/04/08 09:14:12;;;;;;;;;;;;;;;;;;5073172;28;19909;-49
2022/04/08 09:16:38;;;;;;;;;;;;;;;;;;5073232;28;19956;-49
2022/04/08 09:19:04;;;;;;;;;;;;;;;;;;5073069;28;20140;-47
2022/04/08 09:21:30;;;;;;;;;;;;;;;;;;5073030;28;20286;-48
2022/04/08 09:23:56;;;;;;;;;;;;;;;;;;5073083;28;19909;-48
2022/04/08 09:26:22;;;;;;;;;;;;;;;;;;5072957;28;19915;-47
2022/04/08 09:28:48;;;;;;;;;;;;;;;;;;5072980;28;19908;-48
2022/04/08 09:31:13;;;;;;;;;;;;;;;;;;5072979;28;19998;-48
2022/04/08 09:33:39;;;;;;;;;;;;;;;;;;5072850;28;19915;-50
2022/04/08 09:36:05;;;;;;;;;;;;;;;;;;5072604;28;19955;-49
2022/04/08 09:38:31;;;;;;;;;;;;;;;;;;5072231;28;19921;-49
2022/04/08 09:40:57;;;;;;;;;;;;;;;;;;5072759;28;19919;-49
2022/04/08 09:43:23;;;;;;;;;;;;;;;;;;5072841;28;19909;-49
2022/04/08 09:45:49;;;;;;;;;;;;;;;;;;5072789;28;19909;-48
2022/04/08 09:48:14;;;;;;;;;;;;;;;;;;5072805;28;19923;-49
2022/04/08 09:50:42;;;;;;;;;;;;;;;;;;5073046;28;19919;-49
2022/04/08 09:53:09;;;;;;;;;;;;;;;;;;5072579;28;19967;-49
2022/04/08 09:55:35;;;;;;;;;;;;;;;;;;5072641;28;19932;-49
2022/04/08 09:58:01;;;;;;;;;;;;;;;;;;5072636;28;20371;-49
2022/04/08 10:00:27;;;;;;;;;;;;;;;;;;5072468;28;19916;-50
2022/04/08 10:02:54;;;;;;;;;;;;;;;;;;5072358;28;19916;-48
2022/04/08 10:05:22;;;;;;;;;;;;;;;;;;5072317;28;20382;-50
2022/04/08 10:07:48;;;;;;;;;;;;;;;;;;5072606;28;20030;-49
2022/04/08 10:10:14;;;;;;;;;;;;;;;;;;5072541;28;20406;-50
2022/04/08 10:12:40;;;;;;;;;;;;;;;;;;5072605;28;19913;-51
2022/04/08 10:15:06;;;;;;;;;;;;;;;;;;5072348;28;19909;-51
2022/04/08 10:17:32;;;;;;;;;;;;;;;;;;5072657;28;19909;-50
2022/04/08 10:19:58;;;;;;;;;;;;;;;;;;5072185;28;19917;-50
2022/04/08 10:22:24;;;;;;;;;;;;;;;;;;5072136;28;19999;-50
2022/04/08 10:24:49;;;;;;;;;;;;;;;;;;5072490;28;20360;-49
2022/04/08 10:27:15;;;;;;;;;;;;;;;;;;5072051;28;19955;-50
2022/04/08 10:29:41;;;;;;;;;;;;;;;;;;5072278;28;19909;-49
2022/04/08 10:32:07;;;;;;;;;;;;;;;;;;5071742;28;19962;-50
2022/04/08 10:34:33;;;;;;;;;;;;;;;;;;5071837;28;19916;-50
2022/04/08 10:36:59;;;;;;;;;;;;;;;;;;5071823;28;19920;-50
2022/04/08 10:39:25;;;;;;;;;;;;;;;;;;5071964;28;19956;-50
2022/04/08 10:41:51;;;;;;;;;;;;;;;;;;5072158;28;19999;-50
2022/04/08 10:44:17;;;;;;;;;;;;;;;;;;5072478;28;19952;-50
2022/04/08 10:46:43;;;;;;;;;;;;;;;;;;5072165;28;19909;-50
2022/04/08 10:49:09;;;;;;;;;;;;;;;;;;5074798;28;19956;-50
2022/04/08 10:51:35;;;;;;;;;;;;;;;;;;5075990;28;20378;-50
2022/04/08 10:54:01;;;;;;;;;;;;;;;;;;5075930;28;19986;-48
2022/04/08 10:56:26;;;;;;;;;;;;;;;;;;5075850;28;19931;-50
2022/04/08 10:58:52;;;;;;;;;;;;;;;;;;5075745;28;19967;-51
2022/04/08 11:01:18;;;;;;;;;;;;;;;;;;5075729;28;19909;-50
2022/04/08 11:03:48;;;;;;;;;;;;;;;;;;5075615;28;19938;-51
2022/04/08 11:06:15;;;;;;;;;;;;;;;;;;5075676;28;19909;-51
2022/04/08 11:08:41;;;;;;;;;;;;;;;;;;5075683;28;19923;-50
2022/04/08 11:11:07;;;;;;;;;;;;;;;;;;5075578;28;19909;-50
2022/04/08 11:13:33;;;;;;;;;;;;;;;;;;5075759;28;19909;-50
2022/04/08 11:15:58;;;;;;;;;;;;;;;;;;5074149;28;19909;-49
2022/04/08 11:18:24;;;;;;;;;;;;;;;;;;5075536;28;19958;-50
2022/04/08 11:20:50;;;;;;;;;;;;;;;;;;5075461;28;20379;-52
2022/04/08 11:23:16;;;;;;;;;;;;;;;;;;5075457;28;19927;-49
2022/04/08 11:25:42;;;;;;;;;;;;;;;;;;5075681;28;19908;-51
2022/04/08 11:28:09;;;;;;;;;;;;;;;;;;5075330;28;19916;-50
2022/04/08 11:30:35;;;;;;;;;;;;;;;;;;5075528;28;20337;-50
2022/04/08 11:33:01;;;;;;;;;;;;;;;;;;5075240;28;19915;-48
2022/04/08 11:35:28;;;;;;;;;;;;;;;;;;5075459;28;19930;-49
2022/04/08 11:37:54;;;;;;;;;;;;;;;;;;5075287;28;19924;-52
2022/04/08 11:40:20;;;;;;;;;;;;;;;;;;5075051;28;20401;-54
2022/04/08 11:42:46;;;;;;;;;;;;;;;;;;5075118;28;19908;-53
2022/04/08 11:45:11;;;;;;;;;;;;;;;;;;5075025;28;19909;-53
2022/04/08 11:47:40;;;;;;;;;;;;;;;;;;5074796;28;19915;-54
2022/04/08 11:50:09;;;;;;;;;;;;;;;;;;5074952;28;19908;-55
2022/04/08 11:52:35;;;;;;;;;;;;;;;;;;5074891;28;19943;-52
2022/04/08 11:55:01;;;;;;;;;;;;;;;;;;5075055;28;20309;-51
2022/04/08 11:57:27;;;;;;;;;;;;;;;;;;5074769;28;19913;-55
2022/04/08 11:59:53;;;;;;;;;;;;;;;;;;5074132;28;19920;-53
2022/04/08 12:02:19;;;;;;;;;;;;;;;;;;5074742;28;19909;-53
2022/04/08 12:04:45;;;;;;;;;;;;;;;;;;5074591;28;19963;-53
2022/04/08 12:07:11;;;;;;;;;;;;;;;;;;5074623;28;19916;-51
2022/04/08 12:09:36;;;;;;;;;;;;;;;;;;5074474;28;19962;-53
2022/04/08 12:12:02;;;;;;;;;;;;;;;;;;5074467;28;19909;-50
2022/04/08 12:14:28;;;;;;;;;;;;;;;;;;5074442;28;19962;-51
2022/04/08 12:16:54;;;;;;;;;;;;;;;;;;5074373;28;19948;-52
2022/04/08 12:19:20;;;;;;;;;;;;;;;;;;5074270;28;19921;-46
2022/04/08 12:21:48;;;;;;;;;;;;;;;;;;5074298;28;19959;-47
2022/04/08 12:24:14;;;;;;;;;;;;;;;;;;5074176;28;19913;-46
2022/04/08 12:26:40;;;;;;;;;;;;;;;;;;5074460;28;20328;-47
2022/04/08 12:29:07;;;;;;;;;;;;;;;;;;5074097;28;19931;-46
2022/04/08 12:31:33;;;;;;;;;;;;;;;;;;5074113;28;19915;-47
2022/04/08 12:34:01;;;;;;;;;;;;;;;;;;5074081;28;19909;-47
2022/04/08 12:36:27;;;;;;;;;;;;;;;;;;5074089;28;19918;-48
2022/04/08 12:38:53;;;;;;;;;;;;;;;;;;5073628;28;19925;-47
2022/04/08 12:41:19;;;;;;;;;;;;;;;;;;5073905;28;19917;-48
2022/04/08 12:43:45;;;;;;;;;;;;;;;;;;5074027;28;19931;-49
2022/04/08 12:46:11;;;;;;;;;;;;;;;;;;5073766;28;19954;-47
2022/04/08 12:48:37;;;;;;;;;;;;;;;;;;5073652;28;19908;-46
2022/04/08 12:51:07;;;;;;;;;;;;;;;;;;5073710;28;19909;-45
2022/04/08 12:53:32;;;;;;;;;;;;;;;;;;5074008;28;19909;-46
2022/04/08 12:55:58;;;;;;;;;;;;;;;;;;5073694;28;20352;-47
2022/04/08 12:58:27;;;;;;;;;;;;;;;;;;5073501;28;19908;-47
2022/04/08 13:00:54;;;;;;;;;;;;;;;;;;5073599;28;19916;-46
2022/04/08 13:03:20;;;;;;;;;;;;;;;;;;5073615;28;19920;-48
2022/04/08 13:05:46;;;;;;;;;;;;;;;;;;5073378;28;19909;-47
2022/04/08 13:08:12;;;;;;;;;;;;;;;;;;5073291;28;19950;-47
2022/04/08 13:10:38;;;;;;;;;;;;;;;;;;5073065;28;20264;-47
2022/04/08 13:13:04;;;;;;;;;;;;;;;;;;5073042;28;19916;-46
2022/04/08 13:15:30;;;;;;;;;;;;;;;;;;5073372;28;19912;-46
2022/04/08 13:17:57;;;;;;;;;;;;;;;;;;5072961;28;19908;-48
2022/04/08 13:20:23;;;;;;;;;;;;;;;;;;5072860;28;19917;-48
2022/04/08 13:22:49;;;;;;;;;;;;;;;;;;5072808;28;19908;-48
2022/04/08 13:25:15;;;;;;;;;;;;;;;;;;5073063;28;20001;-48
2022/04/08 13:27:42;;;;;;;;;;;;;;;;;;5073081;28;19957;-48
2022/04/08 13:30:09;;;;;;;;;;;;;;;;;;5073312;28;19948;-47
2022/04/08 13:32:38;;;;;;;;;;;;;;;;;;5073050;28;19908;-48
2022/04/08 13:35:03;;;;;;;;;;;;;;;;;;5073318;28;19909;-47
2022/04/08 13:37:29;;;;;;;;;;;;;;;;;;5073072;28;19966;-48
2022/04/08 13:39:55;;;;;;;;;;;;;;;;;;5072881;28;19970;-47
2022/04/08 13:42:23;;;;;;;;;;;;;;;;;;5072434;28;20334;-48
2022/04/08 13:44:49;;;;;;;;;;;;;;;;;;5072877;28;19955;-49
2022/04/08 13:47:15;;;;;;;;;;;;;;;;;;5073058;28;19929;-48
2022/04/08 13:49:41;;;;;;;;;;;;;;;;;;5072806;28;19919;-48
2022/04/08 13:52:07;;;;;;;;;;;;;;;;;;5073062;28;19909;-48
2022/04/08 13:54:33;;;;;;;;;;;;;;;;;;5072970;28;20351;-48
2022/04/08 13:56:59;;;;;;;;;;;;;;;;;;5072692;28;20003;-47
2022/04/08 13:59:25;;;;;;;;;;;;;;;;;;5072579;28;19917;-47
2022/04/08 14:01:51;;;;;;;;;;;;;;;;;;5072841;28;20355;-46
2022/04/08 14:04:17;;;;;;;;;;;;;;;;;;5072567;28;19916;-46
2022/04/08 14:06:43;;;;;;;;;;;;;;;;;;5072616;28;19991;-45
2022/04/08 14:09:08;;;;;;;;;;;;;;;;;;5072623;28;19908;-46
2022/04/08 14:11:34;;;;;;;;;;;;;;;;;;5072547;28;19945;-47
2022/04/08 14:14:00;;;;;;;;;;;;;;;;;;5072835;28;19912;-46
2022/04/08 14:16:26;;;;;;;;;;;;;;;;;;5072495;28;19908;-46
2022/04/08 14:18:52;;;;;;;;;;;;;;;;;;5072400;28;20006;-45
2022/04/08 14:21:18;;;;;;;;;;;;;;;;;;5072403;28;19920;-45
2022/04/08 14:23:44;;;;;;;;;;;;;;;;;;5074406;28;19909;-46
2022/04/08 14:26:10;;;;;;;;;;;;;;;;;;5076478;28;19939;-47
2022/04/08 14:28:36;;;;;;;;;;;;;;;;;;5076670;28;19908;-47
2022/04/08 14:31:02;;;;;;;;;;;;;;;;;;5076480;28;19951;-46
2022/04/08 14:33:28;;;;;;;;;;;;;;;;;;5076363;28;19908;-47
2022/04/08 14:35:54;;;;;;;;;;;;;;;;;;5076623;28;19952;-48
2022/04/08 14:38:20;;;;;;;;;;;;;;;;;;5076183;28;19920;-46
2022/04/08 14:40:46;;;;;;;;;;;;;;;;;;5076448;28;20286;-47
2022/04/08 14:43:12;;;;;;;;;;;;;;;;;;5076135;28;19940;-46
2022/04/08 14:45:38;;;;;;;;;;;;;;;;;;5076174;28;19908;-46
2022/04/08 14:48:04;;;;;;;;;;;;;;;;;;5076200;28;20286;-45
2022/04/08 14:50:30;;;;;;;;;;;;;;;;;;5075795;28;19912;-46
2022/04/08 14:52:56;;;;;;;;;;;;;;;;;;5075936;28;20332;-47
2022/04/08 14:55:22;;;;;;;;;;;;;;;;;;5076198;28;19915;-45
2022/04/08 14:57:48;;;;;;;;;;;;;;;;;;5075790;28;20291;-46
2022/04/08 15:00:14;;;;;;;;;;;;;;;;;;5075735;28;20370;-47
2022/04/08 15:02:39;;;;;;;;;;;;;;;;;;5075689;28;19916;-46
2022/04/08 15:05:05;;;;;;;;;;;;;;;;;;5075979;28;19909;-46
2022/04/08 15:07:31;;;;;;;;;;;;;;;;;;5075746;28;19909;-46
2022/04/08 15:09:57;;;;;;;;;;;;;;;;;;5057716;28;19909;-48
2022/04/08 15:12:23;;;;;;;;;;;;;;;;;;5075465;28;19909;-48
2022/04/08 15:14:49;;;;;;;;;;;;;;;;;;5075483;28;19909;-47
2022/04/08 15:17:15;;;;;;;;;;;;;;;;;;5075536;28;19908;-45
2022/04/08 15:19:41;;;;;;;;;;;;;;;;;;5075248;28;19916;-45
2022/04/08 15:22:06;;;;;;;;;;;;;;;;;;5075366;28;19909;-45
2022/04/08 15:24:32;;;;;;;;;;;;;;;;;;5075386;28;19947;-46
2022/04/08 15:26:59;;;;;;;;;;;;;;;;;;5075300;28;20367;-45
2022/04/08 15:29:26;;;;;;;;;;;;;;;;;;5075070;28;19912;-45
2022/04/08 15:31:52;;;;;;;;;;;;;;;;;;5075471;28;19908;-45
2022/04/08 15:34:17;;;;;;;;;;;;;;;;;;5074527;28;19908;-45
2022/04/08 15:36:43;;;;;;;;;;;;;;;;;;5074619;28;19909;-46
2022/04/08 15:39:09;;;;;;;;;;;;;;;;;;5074819;28;19927;-46
2022/04/08 15:41:38;;;;;;;;;;;;;;;;;;5074939;28;19975;-46
2022/04/08 15:44:04;;;;;;;;;;;;;;;;;;5075315;28;19916;-44
2022/04/08 15:46:30;;;;;;;;;;;;;;;;;;5074796;28;19912;-46
2022/04/08 15:48:57;;;;;;;;;;;;;;;;;;5074799;28;20337;-45
2022/04/08 15:51:23;;;;;;;;;;;;;;;;;;5074622;28;19915;-45
2022/04/08 15:53:49;;;;;;;;;;;;;;;;;;5074625;28;19909;-45
2022/04/08 15:56:15;;;;;;;;;;;;;;;;;;5074593;28;19955;-45
2022/04/08 15:58:41;;;;;;;;;;;;;;;;;;5074314;28;19920;-46
2022/04/08 16:01:06;;;;;;;;;;;;;;;;;;5074828;28;19909;-47
2022/04/08 16:03:32;;;;;;;;;;;;;;;;;;5074354;28;19909;-46
2022/04/08 16:05:58;;;;;;;;;;;;;;;;;;5074379;28;19908;-45
2022/04/08 16:08:24;;;;;;;;;;;;;;;;;;5074453;28;19923;-46
2022/04/08 16:10:50;;;;;;;;;;;;;;;;;;5074558;28;19912;-45
2022/04/08 16:13:16;;;;;;;;;;;;;;;;;;5074264;28;19908;-45
2022/04/08 16:15:42;;;;;;;;;;;;;;;;;;5074293;28;19935;-45
2022/04/08 16:18:08;;;;;;;;;;;;;;;;;;5074101;28;19938;-45
2022/04/08 16:20:34;;;;;;;;;;;;;;;;;;5074329;28;20027;-45
2022/04/08 16:23:00;;;;;;;;;;;;;;;;;;5074494;28;19913;-45
2022/04/08 16:25:25;;;;;;;;;;;;;;;;;;5074224;28;20384;-46
2022/04/08 16:27:51;;;;;;;;;;;;;;;;;;5074141;28;19909;-45
2022/04/08 16:30:17;;;;;;;;;;;;;;;;;;5073951;28;19940;-47
2022/04/08 16:32:43;;;;;;;;;;;;;;;;;;5056064;28;19908;-46
2022/04/08 16:35:09;;;;;;;;;;;;;;;;;;5074265;28;19909;-48
2022/04/08 16:37:35;;;;;;;;;;;;;;;;;;5073919;28;19971;-48